createdAt,value
2023-01-11T00:03:05.933Z,4.07
2023-01-11T00:06:29.521Z,3.83
2023-01-11T00:09:56.050Z,4.40
2023-01-11T00:13:20.338Z,3.77
2023-01-11T00:16:43.965Z,4.53
2023-01-11T00:20:10.915Z,3.20
2023-01-11T00:23:36.135Z,3.40
2023-01-11T00:27:00.019Z,3.43
2023-01-11T00:30:24.308Z,4.50
2023-01-11T00:33:48.000Z,4.30
2023-01-11T00:37:13.455Z,4.00
2023-01-11T00:40:37.326Z,3.63
2023-01-11T00:44:18.888Z,4.87
2023-01-11T00:48:04.837Z,3.50
2023-01-11T00:51:29.013Z,3.57
2023-01-11T00:54:54.702Z,5.57
2023-01-11T00:58:18.195Z,3.43
2023-01-11T01:01:43.274Z,3.40
2023-01-11T01:05:07.570Z,3.80
2023-01-11T01:08:34.183Z,3.20
2023-01-11T01:11:59.258Z,3.50
2023-01-11T01:15:22.208Z,3.50
2023-01-11T01:18:46.096Z,4.87
2023-01-11T01:22:10.050Z,4.60
2023-01-11T01:25:34.067Z,3.57
2023-01-11T01:28:59.495Z,4.50
2023-01-11T01:32:23.085Z,3.10
2023-01-11T01:35:47.088Z,5.53
2023-01-11T01:39:12.386Z,3.17
2023-01-11T01:42:35.983Z,3.30
2023-01-11T01:46:01.505Z,4.47
2023-01-11T01:49:25.111Z,3.93
2023-01-11T01:52:53.827Z,3.50
2023-01-11T01:56:25.779Z,3.00
2023-01-11T01:59:59.423Z,4.80
2023-01-11T02:03:27.889Z,3.47
2023-01-11T02:06:54.817Z,5.97
2023-01-11T02:10:20.704Z,3.07
2023-01-11T02:13:46.403Z,3.10
2023-01-11T02:17:10.238Z,5.10
2023-01-11T02:21:07.515Z,3.30
2023-01-11T02:24:53.843Z,3.63
2023-01-11T02:33:44.306Z,3.47
2023-01-11T02:37:26.412Z,3.27
2023-01-11T02:40:57.671Z,3.77
2023-01-11T02:44:45.409Z,3.20
2023-01-11T02:48:20.066Z,4.23
2023-01-11T02:51:51.314Z,3.60
2023-01-11T02:55:18.248Z,4.13
2023-01-11T02:58:48.841Z,3.43
2023-01-11T03:02:14.404Z,3.10
2023-01-11T03:05:45.085Z,3.10
2023-01-11T03:09:20.585Z,3.50
2023-01-11T03:12:54.698Z,3.60
2023-01-11T03:16:25.631Z,3.20
2023-01-11T03:19:53.235Z,3.30
2023-01-11T03:23:27.479Z,3.77
2023-01-11T03:27:07.210Z,5.53
2023-01-11T03:30:36.111Z,2.90
2023-01-11T03:34:06.629Z,4.40
2023-01-11T03:37:36.415Z,3.63
2023-01-11T03:41:07.535Z,2.83
2023-01-11T03:44:36.119Z,3.63
2023-01-11T03:48:02.668Z,3.30
2023-01-11T03:51:29.306Z,3.87
2023-01-11T03:54:54.514Z,3.20
2023-01-11T03:58:18.297Z,3.00
2023-01-11T04:01:45.107Z,3.20
2023-01-11T04:05:11.291Z,3.00
2023-01-11T04:08:35.217Z,3.10
2023-01-11T04:11:59.294Z,3.10
2023-01-11T04:15:23.234Z,3.00
2023-01-11T04:18:48.629Z,3.00
2023-01-11T04:22:12.534Z,3.30
2023-01-11T04:25:36.087Z,3.10
2023-01-11T04:29:00.331Z,3.10
2023-01-11T04:32:26.639Z,3.70
2023-01-11T04:35:51.598Z,3.70
2023-01-11T04:39:15.339Z,3.33
2023-01-11T04:42:39.321Z,3.00
2023-01-11T04:46:05.633Z,4.13
2023-01-11T04:49:31.026Z,3.70
2023-01-11T04:53:00.404Z,8.80
2023-01-11T04:56:24.273Z,3.37
2023-01-11T04:59:48.336Z,4.13
2023-01-11T05:03:12.266Z,2.80
2023-01-11T05:06:43.840Z,3.00
2023-01-11T05:10:10.996Z,3.50
2023-01-11T05:13:45.520Z,4.03
2023-01-11T05:17:13.378Z,3.20
2023-01-11T05:20:37.304Z,2.90
2023-01-11T05:24:04.622Z,5.13
2023-01-11T05:27:29.497Z,3.47
2023-01-11T05:30:54.128Z,3.10
2023-01-11T05:34:19.197Z,3.00
2023-01-11T05:37:43.364Z,2.90
2023-01-11T05:41:08.445Z,2.90
2023-01-11T05:44:51.186Z,3.00
2023-01-11T05:48:15.720Z,3.17
2023-01-11T05:51:39.864Z,2.87
2023-01-11T05:55:04.715Z,2.90
2023-01-11T05:58:31.609Z,3.27
2023-01-11T06:01:59.697Z,2.90
2023-01-11T06:05:24.898Z,3.10
2023-01-11T06:08:56.938Z,3.10
2023-01-11T06:12:20.638Z,3.13
2023-01-11T06:15:44.532Z,3.13
2023-01-11T06:19:11.306Z,4.20
2023-01-11T06:22:35.461Z,2.70
2023-01-11T06:26:02.180Z,3.73
2023-01-11T06:29:26.414Z,2.90
2023-01-11T06:32:52.662Z,3.33
2023-01-11T06:36:20.293Z,4.03
2023-01-11T06:39:45.407Z,3.10
2023-01-11T06:43:10.658Z,2.90
2023-01-11T06:46:34.520Z,2.90
2023-01-11T06:49:58.480Z,4.33
2023-01-11T06:53:26.746Z,3.20
2023-01-11T06:56:52.470Z,2.70
2023-01-11T07:00:17.476Z,3.50
2023-01-11T07:03:41.639Z,2.80
2023-01-11T07:07:05.437Z,3.60
2023-01-11T07:10:31.229Z,3.60
2023-01-11T07:13:59.058Z,2.97
2023-01-11T07:17:23.421Z,2.80
2023-01-11T07:20:47.844Z,3.00
2023-01-11T07:24:11.579Z,3.53
2023-01-11T07:27:36.561Z,4.80
2023-01-11T07:31:00.761Z,4.27
2023-01-11T07:34:26.055Z,3.40
2023-01-11T07:37:53.136Z,4.37
2023-01-11T07:41:34.988Z,5.20
2023-01-11T07:45:03.939Z,3.67
2023-01-11T07:48:29.222Z,4.13
2023-01-11T07:51:53.547Z,3.07
2023-01-11T07:55:17.586Z,19.20
2023-01-11T07:58:41.568Z,3.77
2023-01-11T08:02:10.010Z,3.57
2023-01-11T08:05:33.822Z,3.97
2023-01-11T08:09:00.119Z,3.00
2023-01-11T08:12:41.052Z,3.63
2023-01-11T08:16:05.333Z,4.67
2023-01-11T08:19:30.589Z,3.67
2023-01-11T08:22:54.572Z,3.47
2023-01-11T08:26:18.521Z,4.10
2023-01-11T08:29:44.261Z,3.63
2023-01-11T08:33:07.896Z,5.37
2023-01-11T08:36:32.834Z,4.80
2023-01-11T08:39:56.854Z,4.30
2023-01-11T08:43:20.468Z,4.17
2023-01-11T08:46:44.739Z,4.27
2023-01-11T08:50:09.618Z,4.70
2023-01-11T08:53:34.843Z,4.20
2023-01-11T08:56:58.667Z,5.47
2023-01-11T09:00:22.492Z,7.10
2023-01-11T09:03:46.080Z,6.00
2023-01-11T09:07:09.655Z,6.43
2023-01-11T09:10:35.115Z,9.03
2023-01-11T09:13:58.678Z,5.40
2023-01-11T09:17:22.260Z,6.10
2023-01-11T09:20:45.864Z,10.10
2023-01-11T09:24:09.775Z,5.63
2023-01-11T09:27:34.708Z,7.27
2023-01-11T09:30:58.321Z,8.77
2023-01-11T09:34:22.371Z,6.07
2023-01-11T09:37:50.219Z,8.07
2023-01-11T09:41:30.981Z,10.50
2023-01-11T09:45:00.339Z,11.60
2023-01-11T09:48:33.146Z,10.73
2023-01-11T09:52:05.159Z,9.53
2023-01-11T09:55:40.985Z,11.23
2023-01-11T09:59:14.841Z,9.30
2023-01-11T10:02:51.382Z,12.50
2023-01-11T10:06:19.954Z,9.37
2023-01-11T10:18:27.364Z,15.83
2023-01-11T10:21:23.394Z,8.70
2023-01-11T10:24:50.595Z,10.67
2023-01-11T10:28:22.921Z,7.90
2023-01-11T10:32:09.714Z,9.80
2023-01-11T10:36:02.787Z,10.03
2023-01-11T10:39:50.605Z,10.30
2023-01-11T10:43:21.935Z,12.67
2023-01-11T10:46:49.295Z,12.83
2023-01-11T10:50:21.374Z,12.00
2023-01-11T10:53:55.788Z,12.80
2023-01-11T10:57:32.073Z,10.20
2023-01-11T11:01:08.594Z,10.87
2023-01-11T11:04:55.659Z,11.13
2023-01-11T11:08:27.466Z,13.60
2023-01-11T11:11:54.962Z,11.20
2023-01-11T11:15:25.432Z,17.77
2023-01-11T11:18:50.442Z,17.27
2023-01-11T11:22:14.623Z,13.50
2023-01-11T11:25:42.608Z,14.20
2023-01-11T11:29:09.019Z,16.07
2023-01-11T11:32:37.204Z,13.80
2023-01-11T11:36:07.505Z,14.27
2023-01-11T11:39:32.731Z,19.17
2023-01-11T11:43:11.703Z,23.03
2023-01-11T11:46:41.139Z,22.43
2023-01-11T11:50:44.200Z,17.07
2023-01-11T11:54:21.221Z,13.37
2023-01-11T11:57:45.371Z,22.73
2023-01-11T12:01:23.086Z,18.73
2023-01-11T12:04:49.500Z,21.60
2023-01-11T12:08:17.510Z,14.60
2023-01-11T12:11:42.960Z,15.00
2023-01-11T12:15:19.174Z,15.03
2023-01-11T12:18:43.731Z,17.50
2023-01-11T12:22:18.709Z,14.00
2023-01-11T12:26:06.281Z,15.67
2023-01-11T12:29:49.883Z,17.07
2023-01-11T12:33:29.544Z,15.00
2023-01-11T12:37:01.617Z,10.87
2023-01-11T12:40:34.383Z,12.53
2023-01-11T12:44:07.394Z,14.03
2023-01-11T12:47:55.180Z,15.00
2023-01-11T12:51:35.528Z,14.60
2023-01-11T12:55:15.268Z,28.50
2023-01-11T12:58:45.471Z,14.03
2023-01-11T13:02:30.711Z,16.93
2023-01-11T13:06:03.132Z,21.63
2023-01-11T13:09:40.589Z,46.63
2023-01-11T13:13:16.184Z,14.50
2023-01-11T13:16:48.299Z,25.00
2023-01-11T13:20:29.352Z,11.47
2023-01-11T13:23:56.189Z,11.30
2023-01-11T13:27:23.442Z,23.30
2023-01-11T13:30:48.180Z,12.70
2023-01-11T13:34:18.824Z,13.20
2023-01-11T13:37:49.159Z,14.10
2023-01-11T13:41:18.812Z,10.70
2023-01-11T13:44:48.728Z,15.30
2023-01-11T13:48:19.401Z,20.27
2023-01-11T13:51:47.710Z,9.70
2023-01-11T13:55:26.092Z,20.53
2023-01-11T13:58:57.051Z,11.17
2023-01-11T14:02:29.231Z,11.07
2023-01-11T14:06:03.493Z,12.53
2023-01-11T14:09:44.057Z,10.60
2023-01-11T14:13:53.867Z,14.67
2023-01-11T14:17:38.387Z,13.10
2023-01-11T14:21:08.002Z,13.37
2023-01-11T14:24:36.269Z,10.00
2023-01-11T14:28:27.162Z,18.80
2023-01-11T14:32:13.329Z,9.10
2023-01-11T14:35:57.797Z,10.83
2023-01-11T14:39:40.419Z,8.73
2023-01-11T14:43:31.167Z,13.70
2023-01-11T14:47:26.738Z,17.00
2023-01-11T14:51:07.143Z,11.00
2023-01-11T14:54:35.699Z,10.40
2023-01-11T14:58:05.762Z,14.53
2023-01-11T15:01:30.755Z,23.43
2023-01-11T15:05:42.202Z,14.40
2023-01-11T15:09:44.892Z,13.30
2023-01-11T15:13:14.326Z,15.50
2023-01-11T15:16:57.443Z,15.37
2023-01-11T15:20:23.287Z,11.73
2023-01-11T15:23:51.437Z,15.47
2023-01-11T15:27:25.289Z,14.97
2023-01-11T15:30:56.141Z,17.07
2023-01-11T15:34:27.109Z,13.10
2023-01-11T15:37:57.084Z,17.30
2023-01-11T15:41:50.282Z,11.90
2023-01-11T15:45:59.958Z,13.70
2023-01-11T15:49:59.592Z,19.40
2023-01-11T15:53:56.541Z,12.37
2023-01-11T15:57:44.430Z,8.30
2023-01-11T16:01:21.410Z,18.30
2023-01-11T16:04:50.061Z,12.93
2023-01-11T16:08:24.232Z,16.60
2023-01-11T16:12:00.422Z,12.70
2023-01-11T16:15:36.620Z,13.07
2023-01-11T16:19:06.446Z,12.30
2023-01-11T16:22:30.525Z,10.20
2023-01-11T16:25:57.657Z,12.93
2023-01-11T16:29:26.063Z,16.83
2023-01-11T16:32:49.942Z,16.43
2023-01-11T16:36:15.587Z,12.80
2023-01-11T16:39:39.173Z,18.50
2023-01-11T16:43:07.586Z,15.07
2023-01-11T16:47:13.710Z,16.57
2023-01-11T16:50:38.126Z,10.03
2023-01-11T16:54:02.866Z,20.67
2023-01-11T16:57:33.464Z,12.97
2023-01-11T17:00:59.779Z,17.73
2023-01-11T17:04:30.719Z,17.93
2023-01-11T17:07:55.343Z,12.93
2023-01-11T17:11:27.889Z,13.60
2023-01-11T17:15:08.272Z,19.00
2023-01-11T17:18:32.761Z,16.77
2023-01-11T17:22:04.291Z,20.57
2023-01-11T17:25:41.045Z,18.53
2023-01-11T17:29:09.255Z,25.67
2023-01-11T17:32:37.831Z,15.20
2023-01-11T17:36:02.507Z,14.33
2023-01-11T17:39:32.269Z,11.17
2023-01-11T17:43:18.537Z,22.43
2023-01-11T17:46:42.766Z,24.77
2023-01-11T17:50:19.436Z,19.43
2023-01-11T17:53:50.623Z,15.83
2023-01-11T17:57:17.313Z,12.93
2023-01-11T18:00:44.579Z,10.43
2023-01-11T18:04:19.232Z,17.23
2023-01-11T18:07:44.781Z,16.73
2023-01-11T18:11:08.489Z,12.70
2023-01-11T18:14:39.415Z,13.00
2023-01-11T18:18:05.970Z,19.83
2023-01-11T18:21:42.296Z,16.30
2023-01-11T18:25:18.882Z,12.83
2023-01-11T18:28:43.905Z,11.80
2023-01-11T18:32:11.643Z,22.63
2023-01-11T18:35:43.694Z,18.63
2023-01-11T18:39:11.238Z,10.57
2023-01-11T18:42:34.892Z,18.00
2023-01-11T18:45:58.608Z,13.10
2023-01-11T18:49:23.533Z,15.33
2023-01-11T18:52:47.040Z,12.03
2023-01-11T18:56:10.821Z,14.80
2023-01-11T18:59:34.356Z,16.97
2023-01-11T19:02:58.227Z,14.23
2023-01-11T19:06:23.089Z,12.80
2023-01-11T19:09:46.637Z,14.90
2023-01-11T19:13:10.647Z,17.93
2023-01-11T19:16:34.193Z,17.33
2023-01-11T19:19:57.690Z,15.90
2023-01-11T19:26:46.186Z,21.00
2023-01-11T19:30:11.980Z,13.23
2023-01-11T19:33:35.499Z,11.30
2023-01-11T19:36:59.606Z,20.20
2023-01-11T19:40:24.960Z,10.97
2023-01-11T19:43:48.609Z,13.53
2023-01-11T19:47:15.452Z,11.47
2023-01-11T19:50:39.916Z,11.33
2023-01-11T19:54:04.143Z,13.90
2023-01-11T19:57:29.661Z,11.33
2023-01-11T20:00:53.241Z,11.13
2023-01-11T20:04:18.131Z,16.40
2023-01-11T20:07:41.764Z,9.50
2023-01-11T20:11:07.554Z,13.17
2023-01-11T20:14:34.013Z,11.67
2023-01-11T20:17:58.850Z,11.07
2023-01-11T20:21:23.924Z,12.00
2023-01-11T20:24:47.568Z,8.77
2023-01-11T20:28:11.097Z,15.63
2023-01-11T20:31:36.667Z,13.50
2023-01-11T20:35:00.293Z,10.00
2023-01-11T20:38:24.125Z,8.90
2023-01-11T20:41:48.524Z,11.23
2023-01-11T20:45:13.139Z,8.80
2023-01-11T20:48:39.344Z,8.27
2023-01-11T20:52:02.994Z,11.60
2023-01-11T20:55:26.764Z,19.40
2023-01-11T20:58:51.423Z,15.20
2023-01-11T21:02:15.079Z,7.00
2023-01-11T21:05:40.383Z,8.00
2023-01-11T21:09:05.502Z,8.87
2023-01-11T21:12:29.146Z,10.43
2023-01-11T21:15:52.757Z,9.10
2023-01-11T21:19:16.796Z,12.43
2023-01-11T21:22:42.009Z,14.83
2023-01-11T21:26:11.545Z,13.47
2023-01-11T21:29:35.469Z,12.63
2023-01-11T21:32:59.554Z,8.10
2023-01-11T21:36:25.268Z,13.17
2023-01-11T21:39:52.187Z,12.90
2023-01-11T21:43:16.045Z,10.17
2023-01-11T21:46:40.257Z,11.07
2023-01-11T21:50:04.745Z,9.17
2023-01-11T21:53:30.664Z,11.47
2023-01-11T21:56:55.612Z,14.57
2023-01-11T22:00:20.410Z,15.47
2023-01-11T22:03:43.949Z,16.33
2023-01-11T22:07:07.587Z,9.30
2023-01-11T22:10:31.351Z,13.60
2023-01-11T22:13:56.585Z,10.03
2023-01-11T22:17:20.322Z,8.77
2023-01-11T22:20:44.254Z,9.97
2023-01-11T22:24:10.957Z,9.77
2023-01-11T22:27:35.042Z,9.50
2023-01-11T22:31:06.355Z,13.90
2023-01-11T22:34:34.408Z,11.93
2023-01-11T22:37:58.530Z,10.47
2023-01-11T22:41:24.102Z,13.63
2023-01-11T22:44:47.865Z,16.03
2023-01-11T22:48:13.027Z,11.97
2023-01-11T22:51:37.031Z,10.17
2023-01-11T22:55:00.733Z,21.93
2023-01-11T22:58:24.291Z,9.47
2023-01-11T23:01:47.853Z,7.93
2023-01-11T23:05:13.069Z,5.30
2023-01-11T23:08:40.705Z,7.77
2023-01-11T23:12:22.217Z,19.43
2023-01-11T23:15:46.529Z,12.87
2023-01-11T23:19:12.553Z,10.40
2023-01-11T23:22:37.437Z,7.80
2023-01-11T23:26:01.631Z,10.10
2023-01-11T23:29:25.612Z,7.80
2023-01-11T23:32:49.572Z,13.60
2023-01-11T23:36:13.711Z,7.03
2023-01-11T23:39:38.966Z,9.27
2023-01-11T23:43:02.603Z,16.37
2023-01-11T23:46:44.573Z,15.80
2023-01-11T23:50:09.661Z,9.00
2023-01-11T23:53:33.648Z,15.43
2023-01-11T23:57:00.180Z,15.10
